Time;durP1;ratioP1;P1;durP2;ratioP2;P2;SDS_P1;SDS_P2;PMS_P1;PMS_P2;Temp;Humidity;BMP_temperature;BMP_pressure;BME280_temperature;BME280_humidity;BME280_pressure;Samples;Min_cycle;Max_cycle;Signal;HPM_P1;HPM_P2
2024/01/26 00:00:27;;;;;;;2.70;2.10;;;8.50;87.40;;;;;;4995872;28;20033;-81
2024/01/26 00:02:53;;;;;;;4.50;1.90;;;8.50;87.20;;;;;;4995905;28;20022;-80
2024/01/26 00:05:19;;;;;;;2.88;1.80;;;8.50;87.10;;;;;;5012993;28;20030;-80
2024/01/26 00:07:44;;;;;;;1.60;1.50;;;8.40;86.80;;;;;;4995774;28;20029;-81
2024/01/26 00:10:10;;;;;;;1.80;1.65;;;8.40;86.90;;;;;;5013472;28;20022;-81
2024/01/26 00:12:36;;;;;;;4.18;1.95;;;8.40;87.00;;;;;;4995808;28;20084;-81
2024/01/26 00:15:02;;;;;;;2.03;1.83;;;8.40;87.20;;;;;;4995775;28;20491;-80
2024/01/26 00:17:27;;;;;;;2.00;1.80;;;8.40;87.30;;;;;;5013069;28;20053;-80
2024/01/26 00:19:54;;;;;;;2.00;1.80;;;8.40;87.30;;;;;;4995326;28;20117;-81
2024/01/26 00:22:20;;;;;;;9.50;6.90;;;8.40;87.10;;;;;;4995753;28;20057;-81
2024/01/26 00:24:45;;;;;;;8.25;5.65;;;8.40;87.20;;;;;;4995657;28;20564;-81
2024/01/26 00:27:11;;;;;;;3.08;2.10;;;8.30;87.30;;;;;;5013193;28;20124;-81
2024/01/26 00:29:36;;;;;;;4.40;2.70;;;8.40;87.40;;;;;;4995536;28;20467;-80
2024/01/26 00:32:02;;;;;;;2.95;2.15;;;8.40;87.40;;;;;;4998148;28;20030;-79
2024/01/26 00:34:28;;;;;;;2.50;1.88;;;8.40;87.40;;;;;;4999526;28;20026;-80
2024/01/26 00:36:53;;;;;;;2.75;2.22;;;8.40;87.30;;;;;;4999574;28;20026;-80
2024/01/26 00:39:19;;;;;;;2.40;1.92;;;8.40;87.30;;;;;;4999496;28;20024;-81
2024/01/26 00:41:44;;;;;;;3.40;2.20;;;8.40;87.20;;;;;;4999404;28;20112;-80
2024/01/26 00:44:10;;;;;;;2.22;2.03;;;8.40;87.20;;;;;;4999336;28;20165;-81
2024/01/26 00:46:38;;;;;;;4.03;2.40;;;8.40;87.10;;;;;;4999540;28;20044;-80
2024/01/26 00:49:04;;;;;;;4.82;2.55;;;8.40;87.20;;;;;;4999439;28;20029;-80
2024/01/26 00:51:29;;;;;;;3.55;1.80;;;8.40;86.90;;;;;;4999099;28;20045;-81
2024/01/26 00:53:55;;;;;;;1.50;1.30;;;8.40;86.80;;;;;;4999276;28;20498;-81
2024/01/26 00:56:20;;;;;;;2.33;1.55;;;8.40;86.90;;;;;;4999299;28;20386;-81
2024/01/26 00:58:46;;;;;;;1.55;1.35;;;8.30;86.70;;;;;;4999247;28;20022;-82
2024/01/26 01:01:12;;;;;;;3.03;1.83;;;8.30;86.80;;;;;;4999321;28;20470;-81
2024/01/26 01:03:37;;;;;;;4.60;2.78;;;8.30;86.80;;;;;;4998639;28;20387;-82
2024/01/26 01:06:03;;;;;;;3.10;1.63;;;8.30;86.70;;;;;;4998888;28;20065;-77
2024/01/26 01:08:28;;;;;;;1.83;1.52;;;8.30;86.60;;;;;;4998417;28;20394;-79
2024/01/26 01:10:54;;;;;;;2.85;1.58;;;8.30;87.50;;;;;;4999091;28;20044;-82
2024/01/26 01:13:20;;;;;;;2.85;1.75;;;8.30;86.60;;;;;;4999108;28;20084;-82
2024/01/26 01:15:45;;;;;;;1.77;1.50;;;8.30;86.50;;;;;;4998948;28;20034;-79
2024/01/26 01:18:11;;;;;;;1.02;0.90;;;8.30;86.50;;;;;;4998695;28;20026;-79
2024/01/26 01:20:37;;;;;;;1.75;0.98;;;8.30;86.40;;;;;;4998193;28;20026;-78
2024/01/26 01:23:03;;;;;;;1.48;1.00;;;8.30;86.40;;;;;;4998802;28;20073;-81
2024/01/26 01:25:28;;;;;;;1.35;1.05;;;8.30;86.40;;;;;;4998686;28;20037;-81
2024/01/26 01:27:54;;;;;;;2.13;1.10;;;8.30;86.30;;;;;;5007762;28;20033;-81
2024/01/26 01:30:19;;;;;;;1.05;0.90;;;8.30;86.10;;;;;;5018200;28;20466;-77
2024/01/26 01:32:45;;;;;;;1.45;0.93;;;8.30;86.00;;;;;;5017947;28;20026;-77
2024/01/26 01:35:11;;;;;;;2.65;0.80;;;8.30;86.00;;;;;;5018152;28;20028;-82
2024/01/26 01:37:36;;;;;;;1.77;0.80;;;8.30;85.90;;;;;;5018156;28;20021;-82
2024/01/26 01:40:02;;;;;;;0.50;0.50;;;8.30;85.50;;;;;;5018013;28;20378;-78
2024/01/26 01:42:27;;;;;;;14.70;0.47;;;8.30;84.90;;;;;;5017631;28;20029;-78
2024/01/26 01:44:53;;;;;;;1.83;0.40;;;8.40;84.50;;;;;;5018091;28;20121;-82
2024/01/26 01:47:19;;;;;;;2.10;1.30;;;8.40;84.30;;;;;;5017812;28;20029;-83
2024/01/26 01:49:44;;;;;;;2.60;1.60;;;8.50;84.30;;;;;;5017454;28;20120;-83
2024/01/26 01:52:13;;;;;;;0.70;0.45;;;8.50;84.30;;;;;;5017746;28;20545;-80
2024/01/26 01:54:40;;;;;;;0.55;0.55;;;8.50;83.50;;;;;;5017445;28;20037;-82
2024/01/26 01:57:06;;;;;;;1.48;1.15;;;8.60;83.50;;;;;;5017837;28;20061;-83
2024/01/26 01:59:32;;;;;;;1.17;0.73;;;8.60;83.50;;;;;;5017789;28;20064;-81
2024/01/26 02:02:01;;;;;;;0.60;0.57;;;8.60;83.30;;;;;;5017328;28;20075;-84
2024/01/26 02:04:26;;;;;;;0.80;0.80;;;8.60;83.40;;;;;;5017747;28;20021;-83
2024/01/26 02:07:03;;;;;;;1.13;1.00;;;8.60;83.50;;;;;;5017832;28;20041;-82
2024/01/26 02:09:29;;;;;;;1.75;0.90;;;8.60;83.50;;;;;;5018010;28;20018;-82
2024/01/26 02:11:55;;;;;;;8.82;6.18;;;8.60;83.60;;;;;;5017358;28;20482;-81
2024/01/26 02:14:22;;;;;;;10.00;7.53;;;8.60;83.80;;;;;;4997868;28;20026;-79
2024/01/26 02:16:55;;;;;;;5.53;4.05;;;8.60;83.90;;;;;;4981549;28;20030;-83
2024/01/26 02:19:22;;;;;;;2.47;1.58;;;8.60;83.90;;;;;;4997342;28;20026;-79
2024/01/26 02:21:48;;;;;;;1.67;1.30;;;8.60;83.90;;;;;;4997598;28;20033;-82
2024/01/26 02:24:13;;;;;;;1.15;1.00;;;8.50;84.00;;;;;;4997564;28;20030;-81
2024/01/26 02:26:40;;;;;;;1.08;0.85;;;8.50;84.10;;;;;;4997567;28;20026;-78
2024/01/26 02:29:05;;;;;;;1.70;0.70;;;8.50;84.00;;;;;;4997546;28;20034;-80
2024/01/26 02:31:31;;;;;;;0.70;0.60;;;8.50;84.00;;;;;;4997528;28;20485;-79
2024/01/26 02:33:56;;;;;;;0.52;0.52;;;8.50;84.10;;;;;;4997429;28;20411;-79
2024/01/26 02:36:23;;;;;;;0.68;0.63;;;8.50;84.00;;;;;;4997569;28;20423;-78
2024/01/26 02:38:49;;;;;;;1.75;0.40;;;8.50;84.20;;;;;;4997350;28;20351;-78
2024/01/26 02:41:15;;;;;;;0.73;0.40;;;8.50;84.20;;;;;;4997802;28;20026;-78
2024/01/26 02:43:41;;;;;;;0.75;0.55;;;8.50;84.20;;;;;;4997479;28;20025;-78
2024/01/26 02:46:10;;;;;;;2.28;1.55;;;8.50;84.20;;;;;;4997203;28;20516;-78
2024/01/26 02:48:35;;;;;;;2.65;1.70;;;8.50;84.20;;;;;;4997265;28;20434;-78
2024/01/26 02:51:01;;;;;;;1.50;1.40;;;8.50;84.20;;;;;;4997271;28;20046;-78
2024/01/26 02:53:26;;;;;;;1.88;0.88;;;8.50;84.20;;;;;;4996244;28;20036;-76
2024/01/26 02:55:52;;;;;;;1.40;1.10;;;8.50;84.00;;;;;;4980943;28;20562;-77
2024/01/26 02:58:19;;;;;;;0.60;0.50;;;8.50;83.80;;;;;;4980601;28;20033;-77
2024/01/26 03:00:45;;;;;;;0.35;0.35;;;8.50;83.70;;;;;;4997042;28;20022;-80
2024/01/26 03:03:10;;;;;;;1.13;0.50;;;8.50;83.70;;;;;;4996962;28;20018;-75
2024/01/26 03:05:36;;;;;;;0.80;0.50;;;8.50;83.60;;;;;;4996510;28;20030;-79
2024/01/26 03:08:02;;;;;;;2.78;0.60;;;8.40;83.60;;;;;;4996881;28;20034;-81
2024/01/26 03:10:28;;;;;;;3.03;1.20;;;8.40;83.60;;;;;;5014444;28;20029;-81
2024/01/26 03:12:55;;;;;;;1.00;0.70;;;8.40;83.60;;;;;;4996677;28;20382;-78
2024/01/26 03:15:20;;;;;;;3.45;2.78;;;8.40;83.30;;;;;;4996867;28;20036;-80
2024/01/26 03:17:46;;;;;;;6.15;4.57;;;8.40;83.10;;;;;;4996120;28;20021;-82
2024/01/26 03:20:11;;;;;;;2.33;0.80;;;8.40;82.90;;;;;;4996060;28;20049;-81
2024/01/26 03:22:37;;;;;;;5.75;4.20;;;8.50;82.70;;;;;;4980555;28;20053;-77
2024/01/26 03:25:03;;;;;;;2.75;1.73;;;8.50;82.60;;;;;;4996034;28;20147;-80
2024/01/26 03:27:29;;;;;;;2.65;1.42;;;8.50;82.40;;;;;;4996335;28;20129;-79
2024/01/26 03:29:55;;;;;;;8.63;4.80;;;8.50;82.30;;;;;;4996450;28;20057;-82
2024/01/26 03:32:20;;;;;;;1.73;0.63;;;8.60;82.20;;;;;;4996585;28;20034;-78
2024/01/26 03:34:46;;;;;;;1.08;0.65;;;8.50;81.60;;;;;;4996362;28;20018;-80
2024/01/26 03:37:13;;;;;;;2.20;1.50;;;8.50;81.40;;;;;;4980169;28;20462;-82
2024/01/26 03:39:39;;;;;;;1.05;0.98;;;8.60;81.20;;;;;;4996298;28;20026;-81
2024/01/26 03:42:05;;;;;;;1.83;1.27;;;8.60;80.90;;;;;;4996228;28;20037;-77
2024/01/26 03:44:32;;;;;;;2.17;0.80;;;8.60;80.20;;;;;;4996086;28;20026;-77
2024/01/26 03:46:58;;;;;;;7.55;4.75;;;8.70;80.20;;;;;;4995656;28;20486;-78
2024/01/26 03:49:24;;;;;;;10.43;5.15;;;8.70;80.20;;;;;;4996145;28;20041;-77
2024/01/26 03:51:49;;;;;;;1.35;0.98;;;8.70;80.20;;;;;;4995672;28;20691;-77
2024/01/26 03:54:15;;;;;;;3.60;0.88;;;8.80;80.00;;;;;;4996049;28;20034;-77
2024/01/26 03:56:40;;;;;;;1.05;0.63;;;8.70;79.50;;;;;;4995850;28;20079;-77
2024/01/26 03:59:06;;;;;;;6.05;3.42;;;8.80;78.80;;;;;;4979834;28;20022;-78
2024/01/26 04:01:33;;;;;;;0.45;0.43;;;8.80;79.00;;;;;;4996078;28;20022;-83
2024/01/26 04:03:58;;;;;;;1.00;0.38;;;8.80;78.40;;;;;;4995824;28;20534;-79
2024/01/26 04:06:24;;;;;;;0.73;0.50;;;8.80;76.70;;;;;;4995475;28;20145;-77
2024/01/26 04:08:49;;;;;;;1.70;0.40;;;8.90;76.90;;;;;;4999315;28;20382;-82
2024/01/26 04:11:15;;;;;;;1.40;0.70;;;8.90;76.40;;;;;;4996249;28;20026;-80
2024/01/26 04:13:40;;;;;;;0.88;0.50;;;9.00;76.30;;;;;;4996121;28;20117;-80
2024/01/26 04:16:07;;;;;;;0.40;0.40;;;9.10;75.70;;;;;;4995922;28;20018;-80
2024/01/26 04:18:33;;;;;;;1.25;0.50;;;9.10;75.60;;;;;;4995703;28;20638;-76
2024/01/26 04:20:58;;;;;;;0.43;0.40;;;9.10;75.40;;;;;;4995488;28;20030;-79
2024/01/26 04:23:24;;;;;;;0.70;0.45;;;9.10;75.70;;;;;;4995827;28;20022;-77
2024/01/26 04:25:50;;;;;;;0.95;0.47;;;9.10;75.70;;;;;;4995753;28;20035;-77
2024/01/26 04:28:15;;;;;;;2.42;0.82;;;9.10;75.60;;;;;;4995744;28;20407;-79
2024/01/26 04:30:43;;;;;;;0.80;0.43;;;9.20;75.40;;;;;;4995723;28;20026;-77
2024/01/26 04:33:08;;;;;;;1.25;0.60;;;9.20;75.40;;;;;;4995400;28;20026;-80
2024/01/26 04:35:34;;;;;;;3.83;0.90;;;9.20;75.30;;;;;;4995625;28;20018;-77
2024/01/26 04:38:00;;;;;;;1.85;0.85;;;9.20;75.20;;;;;;4995658;28;20026;-81
2024/01/26 04:40:27;;;;;;;0.93;0.50;;;9.20;75.30;;;;;;4979512;28;20033;-81
2024/01/26 04:42:52;;;;;;;2.35;0.50;;;9.20;75.50;;;;;;4995596;28;20026;-79
2024/01/26 04:45:18;;;;;;;1.27;0.43;;;9.30;75.80;;;;;;4995606;28;20021;-78
2024/01/26 04:47:43;;;;;;;3.22;0.50;;;9.30;75.70;;;;;;4995088;28;20041;-78
2024/01/26 04:50:10;;;;;;;0.70;0.17;;;9.30;75.90;;;;;;4994989;28;20068;-77
2024/01/26 04:52:35;;;;;;;1.15;0.65;;;9.30;75.80;;;;;;4995513;28;20085;-78
2024/01/26 04:55:01;;;;;;;1.30;0.50;;;9.30;76.30;;;;;;4995356;28;20414;-77
2024/01/26 04:57:26;;;;;;;1.42;0.90;;;9.30;76.50;;;;;;4995404;28;20030;-77
2024/01/26 04:59:52;;;;;;;0.82;0.60;;;9.20;76.70;;;;;;4995093;28;20518;-78
2024/01/26 05:02:17;;;;;;;0.88;0.50;;;9.20;76.90;;;;;;4994958;28;20108;-77
2024/01/26 05:04:43;;;;;;;1.25;0.60;;;9.10;77.00;;;;;;4995070;28;20034;-78
2024/01/26 05:07:10;;;;;;;0.50;0.40;;;9.10;77.00;;;;;;4995344;28;20030;-78
2024/01/26 05:09:36;;;;;;;2.55;0.80;;;9.10;76.80;;;;;;4995181;28;20022;-78
2024/01/26 05:12:02;;;;;;;0.30;0.30;;;9.10;77.10;;;;;;4995466;28;20041;-77
2024/01/26 05:14:27;;;;;;;1.08;0.63;;;9.20;76.80;;;;;;5012321;28;20033;-79
2024/01/26 05:16:53;;;;;;;1.60;0.80;;;9.20;77.00;;;;;;4995429;28;20431;-80
2024/01/26 05:19:18;;;;;;;1.83;0.40;;;9.30;76.70;;;;;;4999123;28;20463;-80
2024/01/26 05:21:44;;;;;;;0.90;0.32;;;9.30;76.90;;;;;;4999042;28;20068;-83
2024/01/26 05:24:09;;;;;;;0.43;0.40;;;9.30;76.30;;;;;;4999318;28;20022;-84
2024/01/26 05:26:38;;;;;;;1.38;0.45;;;9.40;75.60;;;;;;4998914;28;20033;-81
2024/01/26 05:29:06;;;;;;;2.55;0.35;;;9.40;75.70;;;;;;4998660;28;20122;-78
2024/01/26 05:31:33;;;;;;;0.57;0.20;;;9.40;75.10;;;;;;5016148;28;20076;-81
2024/01/26 05:33:58;;;;;;;0.20;0.20;;;9.40;75.00;;;;;;5017245;28;20049;-83
2024/01/26 05:36:24;;;;;;;0.55;0.40;;;9.40;75.30;;;;;;4999319;28;20037;-82
2024/01/26 05:38:50;;;;;;;1.42;0.60;;;9.40;75.10;;;;;;4999488;28;20036;-87
2024/01/26 05:41:15;;;;;;;0.43;0.40;;;9.40;75.30;;;;;;4999997;28;20022;-85
2024/01/26 05:43:41;;;;;;;0.50;0.50;;;9.40;75.50;;;;;;4999545;28;20018;-85
2024/01/26 05:46:06;;;;;;;0.57;0.40;;;9.40;75.30;;;;;;4999070;28;20033;-84
2024/01/26 05:48:32;;;;;;;0.85;0.52;;;9.40;75.00;;;;;;4998778;28;20038;-84
2024/01/26 05:50:57;;;;;;;1.00;0.40;;;9.40;74.90;;;;;;4998158;28;20479;-80
2024/01/26 05:53:23;;;;;;;1.17;0.60;;;9.40;74.80;;;;;;4998303;28;20390;-79
2024/01/26 05:55:50;;;;;;;0.40;0.40;;;9.30;75.10;;;;;;4998300;28;20072;-79
2024/01/26 05:58:18;;;;;;;0.52;0.32;;;9.40;75.70;;;;;;4998303;28;20022;-81
2024/01/26 06:00:45;;;;;;;1.05;0.40;;;9.40;74.10;;;;;;4998460;28;20037;-81
2024/01/26 06:03:11;;;;;;;1.52;0.68;;;9.40;73.90;;;;;;4998186;28;20423;-81
2024/01/26 06:05:37;;;;;;;2.92;0.70;;;9.50;73.80;;;;;;4998244;28;20022;-81
2024/01/26 06:08:02;;;;;;;2.67;0.75;;;9.50;73.40;;;;;;4997881;28;20391;-82
2024/01/26 06:10:28;;;;;;;2.65;0.95;;;9.60;73.30;;;;;;5002006;28;20030;-83
2024/01/26 06:12:53;;;;;;;0.50;0.50;;;9.60;73.00;;;;;;4998301;28;20050;-83
2024/01/26 06:15:19;;;;;;;2.67;0.57;;;9.60;73.00;;;;;;4997653;28;20046;-81
2024/01/26 06:17:47;;;;;;;0.85;0.30;;;9.70;73.30;;;;;;4997917;28;20026;-83
2024/01/26 06:20:13;;;;;;;1.33;0.38;;;9.70;73.40;;;;;;5015113;28;20033;-81
2024/01/26 06:22:39;;;;;;;1.10;0.60;;;9.70;74.00;;;;;;4998240;28;20018;-87
2024/01/26 06:25:04;;;;;;;1.98;0.40;;;9.70;74.30;;;;;;4998869;28;20080;-87
2024/01/26 06:27:30;;;;;;;3.97;0.60;;;9.70;74.50;;;;;;4998959;28;20041;-82
2024/01/26 06:29:55;;;;;;;1.00;0.50;;;9.60;74.90;;;;;;4996865;28;20030;-82
2024/01/26 06:32:21;;;;;;;1.60;0.55;;;9.60;75.20;;;;;;4998287;28;20129;-87
2024/01/26 06:34:48;;;;;;;0.80;0.40;;;9.50;75.30;;;;;;4998091;28;20025;-79
2024/01/26 06:37:13;;;;;;;3.08;0.50;;;9.60;75.50;;;;;;5008805;28;20579;-80
2024/01/26 06:39:41;;;;;;;0.90;0.43;;;9.60;74.80;;;;;;5017827;28;20047;-82
2024/01/26 06:42:07;;;;;;;1.23;0.60;;;9.60;74.60;;;;;;5018913;28;20437;-85
2024/01/26 06:44:34;;;;;;;0.68;0.50;;;9.60;74.50;;;;;;5018215;28;20021;-81
2024/01/26 06:47:00;;;;;;;1.17;0.63;;;9.70;74.10;;;;;;5016992;28;20029;-81
2024/01/26 06:49:26;;;;;;;1.13;0.60;;;9.80;73.80;;;;;;5017209;28;20028;-80
2024/01/26 06:51:52;;;;;;;1.67;0.70;;;9.80;73.80;;;;;;5017017;28;20045;-81
2024/01/26 06:54:17;;;;;;;0.93;0.60;;;9.70;74.20;;;;;;5017152;28;20032;-83
2024/01/26 06:56:44;;;;;;;0.50;0.50;;;9.80;74.00;;;;;;5017226;28;20112;-82
2024/01/26 06:59:10;;;;;;;1.75;0.60;;;9.80;73.60;;;;;;5017342;28;20383;-80
2024/01/26 07:01:35;;;;;;;1.77;0.52;;;9.80;73.50;;;;;;5017056;28;20030;-83
2024/01/26 07:04:02;;;;;;;1.10;0.57;;;9.80;73.30;;;;;;5034916;28;20026;-81
2024/01/26 07:06:27;;;;;;;0.90;0.73;;;9.90;73.40;;;;;;5016617;28;20027;-79
2024/01/26 07:08:53;;;;;;;1.15;0.93;;;9.90;72.90;;;;;;5016970;28;20033;-81
2024/01/26 07:11:20;;;;;;;1.98;0.70;;;9.90;73.00;;;;;;5034188;28;20021;-80
2024/01/26 07:13:46;;;;;;;2.03;0.60;;;9.90;73.00;;;;;;5016562;28;20116;-81
2024/01/26 07:16:11;;;;;;;0.68;0.50;;;10.00;73.20;;;;;;5016542;28;20060;-80
2024/01/26 07:18:37;;;;;;;1.73;1.02;;;9.90;73.50;;;;;;5016442;28;20462;-78
2024/01/26 07:21:10;;;;;;;1.52;0.70;;;9.90;73.40;;;;;;5016281;28;20537;-78
2024/01/26 07:23:39;;;;;;;1.55;0.82;;;10.00;73.00;;;;;;4999985;28;20033;-78
2024/01/26 07:26:06;;;;;;;1.55;1.17;;;10.00;72.80;;;;;;5016326;28;20034;-77
2024/01/26 07:28:31;;;;;;;1.02;0.82;;;9.90;73.00;;;;;;5017173;28;20136;-78
2024/01/26 07:30:57;;;;;;;3.78;1.10;;;9.90;73.40;;;;;;5021853;28;20045;-79
2024/01/26 07:33:23;;;;;;;1.83;1.10;;;9.80;73.70;;;;;;5016432;28;20548;-77
2024/01/26 07:35:48;;;;;;;2.40;1.00;;;9.90;73.60;;;;;;5000100;28;20026;-79
2024/01/26 07:38:14;;;;;;;2.88;1.10;;;9.90;73.30;;;;;;5016940;28;20029;-79
2024/01/26 07:40:40;;;;;;;1.83;1.30;;;10.00;73.50;;;;;;5016129;28;20386;-81
2024/01/26 07:43:06;;;;;;;2.67;1.10;;;9.90;73.90;;;;;;5001503;28;20163;-87
2024/01/26 07:45:32;;;;;;;2.88;1.25;;;9.90;73.70;;;;;;5021860;28;20440;-86
2024/01/26 07:48:01;;;;;;;1.92;0.93;;;9.90;73.70;;;;;;5012217;28;20060;-83
2024/01/26 07:50:26;;;;;;;2.55;1.30;;;10.00;73.90;;;;;;4994150;28;20099;-76
2024/01/26 07:52:52;;;;;;;3.13;1.30;;;9.90;74.50;;;;;;5015913;28;20485;-76
2024/01/26 07:55:17;;;;;;;2.03;1.20;;;10.20;75.20;;;;;;5015975;28;20064;-76
2024/01/26 07:57:43;;;;;;;1.63;1.10;;;10.40;72.90;;;;;;5015939;28;20117;-76
2024/01/26 08:00:30;;;;;;;4.43;1.20;;;10.50;73.20;;;;;;5016090;28;20486;-80
2024/01/26 08:02:56;;;;;;;2.65;1.15;;;10.70;72.10;;;;;;5015215;28;20037;-75
2024/01/26 08:05:22;;;;;;;1.75;1.45;;;10.60;71.50;;;;;;5015320;28;20430;-76
2024/01/26 08:07:50;;;;;;;2.63;1.50;;;10.60;71.90;;;;;;4999093;28;20038;-79
2024/01/26 08:10:16;;;;;;;4.10;1.55;;;10.50;71.40;;;;;;4999022;28;20028;-78
2024/01/26 08:12:46;;;;;;;3.35;1.58;;;10.50;72.00;;;;;;5015256;28;20060;-79
2024/01/26 08:15:27;;;;;;;2.55;1.80;;;10.50;71.90;;;;;;5029087;28;20034;-79
2024/01/26 08:17:57;;;;;;;2.63;1.60;;;10.50;71.50;;;;;;5008073;28;20037;-77
2024/01/26 08:20:24;;;;;;;4.60;1.63;;;10.70;71.30;;;;;;5014958;28;20105;-78
2024/01/26 08:22:51;;;;;;;1.63;1.30;;;10.90;71.30;;;;;;4998990;28;20030;-78
2024/01/26 08:25:24;;;;;;;2.20;1.52;;;11.00;70.50;;;;;;5014958;28;20108;-82
2024/01/26 08:27:51;;;;;;;2.60;1.70;;;11.20;69.60;;;;;;5014543;28;20502;-79
2024/01/26 08:30:16;;;;;;;2.95;1.60;;;11.20;69.30;;;;;;4998786;28;20187;-82
2024/01/26 08:32:42;;;;;;;2.47;1.40;;;11.00;70.10;;;;;;5015557;28;20152;-79
2024/01/26 08:35:09;;;;;;;3.28;1.50;;;10.90;70.40;;;;;;5014797;28;20120;-81
2024/01/26 08:37:35;;;;;;;3.70;1.73;;;10.70;71.20;;;;;;5014896;28;20136;-80
2024/01/26 08:40:01;;;;;;;2.78;1.50;;;10.60;72.10;;;;;;5014159;28;20029;-78
2024/01/26 08:42:28;;;;;;;5.32;1.60;;;10.60;72.70;;;;;;5014645;28;20052;-79
2024/01/26 08:44:53;;;;;;;2.17;1.33;;;10.60;72.00;;;;;;5014849;28;20029;-79
2024/01/26 08:47:19;;;;;;;2.33;1.20;;;10.60;72.40;;;;;;5014741;28;20030;-76
2024/01/26 08:49:44;;;;;;;3.67;1.75;;;10.60;72.00;;;;;;4998765;28;20030;-76
2024/01/26 08:52:10;;;;;;;3.83;1.75;;;10.60;72.80;;;;;;5038065;28;20564;-77
2024/01/26 08:54:37;;;;;;;2.20;1.50;;;10.70;72.30;;;;;;5018334;28;20022;-76
2024/01/26 08:57:03;;;;;;;2.47;1.65;;;10.70;71.70;;;;;;5018679;28;20156;-76
2024/01/26 08:59:32;;;;;;;2.92;1.70;;;10.70;71.70;;;;;;5018845;28;20048;-76
2024/01/26 09:01:57;;;;;;;2.90;1.50;;;10.80;71.70;;;;;;5018610;28;20025;-78
2024/01/26 09:04:23;;;;;;;2.35;1.33;;;10.70;72.10;;;;;;5018461;28;20029;-78
2024/01/26 09:06:49;;;;;;;3.03;1.20;;;10.80;71.70;;;;;;5018619;28;20025;-76
2024/01/26 09:09:15;;;;;;;2.40;1.08;;;10.70;71.70;;;;;;5018331;28;20036;-76
2024/01/26 09:11:41;;;;;;;3.38;1.45;;;10.80;71.20;;;;;;5018695;28;20044;-77
2024/01/26 09:14:06;;;;;;;3.17;1.50;;;10.80;71.10;;;;;;5018158;28;20408;-76
2024/01/26 09:16:32;;;;;;;2.42;1.52;;;10.90;70.90;;;;;;5018431;28;20466;-76
2024/01/26 09:18:58;;;;;;;1.33;1.10;;;10.90;71.10;;;;;;5018307;28;20026;-78
2024/01/26 09:21:24;;;;;;;1.75;1.20;;;10.80;71.00;;;;;;5018432;28;20030;-75
2024/01/26 09:23:49;;;;;;;1.40;0.90;;;10.80;70.70;;;;;;5002171;28;20033;-76
2024/01/26 09:26:15;;;;;;;2.97;1.20;;;10.90;70.30;;;;;;5035931;28;20024;-77
2024/01/26 09:28:40;;;;;;;1.80;1.25;;;10.90;70.70;;;;;;5018308;28;20063;-77
2024/01/26 09:31:06;;;;;;;2.58;1.10;;;10.90;71.00;;;;;;5018528;28;20025;-77
2024/01/26 09:33:33;;;;;;;1.85;0.90;;;10.90;70.60;;;;;;5018169;28;20029;-77
2024/01/26 09:35:58;;;;;;;1.92;1.20;;;10.90;70.70;;;;;;5018258;28;20421;-77
2024/01/26 09:38:24;;;;;;;1.17;1.08;;;10.90;70.80;;;;;;5018227;28;20030;-77
2024/01/26 09:40:50;;;;;;;2.03;0.98;;;10.80;70.80;;;;;;5017831;28;20082;-76
2024/01/26 09:43:16;;;;;;;1.20;1.10;;;10.90;70.90;;;;;;5018220;28;20025;-77
2024/01/26 09:45:45;;;;;;;1.88;1.08;;;10.90;71.20;;;;;;5018055;28;20029;-77
2024/01/26 09:48:11;;;;;;;2.83;1.10;;;10.90;71.10;;;;;;5017813;28;20029;-78
2024/01/26 09:50:37;;;;;;;1.95;1.25;;;10.90;71.30;;;;;;5017673;28;20375;-79
2024/01/26 09:53:03;;;;;;;3.63;1.55;;;10.90;71.70;;;;;;5017938;28;20547;-78
2024/01/26 09:55:31;;;;;;;1.58;1.10;;;10.90;71.50;;;;;;5017763;28;20353;-77
2024/01/26 09:57:57;;;;;;;2.78;1.20;;;11.00;71.30;;;;;;5017626;28;20052;-76
2024/01/26 10:00:23;;;;;;;1.90;1.23;;;11.00;71.40;;;;;;5018005;28;20025;-79
2024/01/26 10:02:49;;;;;;;1.48;1.15;;;11.00;71.50;;;;;;5017413;28;20489;-78
2024/01/26 10:05:16;;;;;;;1.27;0.93;;;11.10;71.70;;;;;;5017525;28;20022;-78
2024/01/26 10:07:44;;;;;;;1.63;1.15;;;11.20;70.30;;;;;;5017366;28;20033;-78
2024/01/26 10:10:10;;;;;;;1.98;1.20;;;11.30;70.20;;;;;;5018160;28;20485;-79
2024/01/26 10:12:36;;;;;;;0.82;0.82;;;11.30;70.40;;;;;;5005311;28;20104;-79
2024/01/26 10:15:08;;;;;;;2.03;1.30;;;11.40;70.10;;;;;;5017565;28;20056;-79
2024/01/26 10:17:34;;;;;;;1.08;0.93;;;11.40;69.50;;;;;;5017785;28;20026;-80
2024/01/26 10:20:15;;;;;;;1.30;1.08;;;11.50;69.80;;;;;;5016886;28;20025;-78
2024/01/26 10:22:42;;;;;;;1.95;1.20;;;11.60;69.60;;;;;;5017541;28;20113;-78
2024/01/26 10:25:08;;;;;;;2.13;1.58;;;11.60;69.80;;;;;;5001079;28;20488;-77
2024/01/26 10:27:34;;;;;;;1.80;1.15;;;11.60;69.60;;;;;;5017362;28;20045;-79
2024/01/26 10:30:01;;;;;;;1.17;0.90;;;11.60;69.40;;;;;;5017318;28;20171;-79
2024/01/26 10:32:29;;;;;;;1.30;1.10;;;11.50;69.80;;;;;;5017016;28;20034;-77
2024/01/26 10:35:03;;;;;;;1.98;1.15;;;11.30;71.00;;;;;;5017314;28;20022;-79
2024/01/26 10:37:34;;;;;;;1.63;1.30;;;11.20;72.10;;;;;;5016916;28;20084;-77
2024/01/26 10:40:04;;;;;;;2.47;1.38;;;11.20;72.00;;;;;;5016815;28;20450;-78
2024/01/26 10:42:30;;;;;;;3.60;1.25;;;11.10;71.90;;;;;;5016780;28;20075;-77
2024/01/26 10:45:00;;;;;;;1.67;1.15;;;11.10;71.90;;;;;;5034044;28;20037;-77
2024/01/26 10:47:26;;;;;;;2.13;1.15;;;11.20;72.20;;;;;;5016439;28;20060;-77
2024/01/26 10:49:57;;;;;;;1.35;1.02;;;11.10;72.00;;;;;;5000337;28;20490;-76
2024/01/26 10:52:25;;;;;;;2.15;1.50;;;11.10;72.20;;;;;;5017839;28;20029;-77
2024/01/26 10:54:51;;;;;;;1.92;1.27;;;11.10;72.00;;;;;;5016064;28;20419;-77
2024/01/26 10:57:19;;;;;;;2.33;1.42;;;11.10;71.80;;;;;;5016306;28;20493;-77
2024/01/26 10:59:46;;;;;;;1.58;1.23;;;11.10;72.40;;;;;;5033454;28;20580;-78
2024/01/26 11:02:27;;;;;;;4.28;2.05;;;11.20;72.00;;;;;;5015952;28;20026;-78
2024/01/26 11:04:53;;;;;;;2.90;1.80;;;11.20;72.00;;;;;;5033972;28;20032;-79
2024/01/26 11:07:19;;;;;;;2.30;2.03;;;11.10;72.10;;;;;;5016201;28;20029;-80
2024/01/26 11:09:46;;;;;;;3.95;1.67;;;11.10;72.60;;;;;;5016146;28;20116;-80
2024/01/26 11:12:25;;;;;;;2.22;1.48;;;11.10;72.60;;;;;;5016854;28;20022;-80
2024/01/26 11:15:05;;;;;;;2.55;1.40;;;11.20;72.00;;;;;;5034085;28;20065;-81
2024/01/26 11:17:50;;;;;;;2.03;1.48;;;11.20;72.20;;;;;;5016581;28;20034;-81
2024/01/26 11:20:30;;;;;;;2.33;1.50;;;11.20;72.20;;;;;;5017282;28;20022;-83
2024/01/26 11:23:06;;;;;;;2.80;1.80;;;11.20;72.40;;;;;;5016646;28;20029;-81
2024/01/26 11:25:37;;;;;;;1.45;1.30;;;11.10;73.10;;;;;;5016148;28;20025;-80
2024/01/26 11:28:05;;;;;;;1.40;1.02;;;11.20;73.80;;;;;;5015847;28;20033;-79
2024/01/26 11:30:34;;;;;;;1.25;1.13;;;11.10;73.40;;;;;;5016117;28;20115;-81
2024/01/26 11:33:01;;;;;;;1.70;1.13;;;11.10;73.60;;;;;;5016430;28;20030;-80
2024/01/26 11:35:27;;;;;;;2.22;1.38;;;11.10;74.10;;;;;;5001936;28;20080;-78
2024/01/26 11:37:55;;;;;;;1.95;1.13;;;11.00;74.90;;;;;;5017046;28;20029;-80
2024/01/26 11:40:23;;;;;;;2.78;1.20;;;11.00;75.10;;;;;;5015932;28;20158;-82
2024/01/26 11:42:50;;;;;;;1.42;1.27;;;10.90;76.20;;;;;;5016276;28;20026;-80
2024/01/26 11:45:44;;;;;;;2.15;1.50;;;10.90;76.30;;;;;;5015178;28;20388;-81
2024/01/26 11:48:11;;;;;;;3.10;1.30;;;10.90;75.80;;;;;;5015437;28;20379;-82
2024/01/26 11:50:37;;;;;;;1.98;1.40;;;10.90;75.50;;;;;;5015159;28;20068;-81
2024/01/26 11:53:04;;;;;;;2.90;1.42;;;10.90;75.80;;;;;;5015337;28;20033;-80
2024/01/26 11:55:30;;;;;;;1.42;1.30;;;11.00;76.50;;;;;;5015127;28;20018;-80
2024/01/26 11:57:56;;;;;;;1.88;1.20;;;10.90;76.70;;;;;;5032914;28;20087;-81
2024/01/26 12:00:22;;;;;;;1.17;1.08;;;10.90;77.00;;;;;;5033022;28;20536;-82
2024/01/26 12:02:48;;;;;;;1.30;1.10;;;10.90;76.10;;;;;;5032960;28;20034;-80
2024/01/26 12:05:16;;;;;;;1.83;1.10;;;10.90;76.10;;;;;;5032834;28;20052;-82
2024/01/26 12:07:41;;;;;;;1.80;1.25;;;10.90;76.70;;;;;;5033005;28;20029;-82
2024/01/26 12:10:09;;;;;;;1.75;1.30;;;10.90;77.60;;;;;;5032937;28;20040;-82
2024/01/26 12:12:35;;;;;;;6.55;3.95;;;10.90;77.80;;;;;;5033406;28;20112;-81
2024/01/26 12:15:02;;;;;;;9.80;5.75;;;10.90;77.00;;;;;;5033903;28;20111;-81
2024/01/26 12:17:28;;;;;;;4.07;2.78;;;10.80;77.50;;;;;;5033758;28;20025;-81
2024/01/26 12:19:55;;;;;;;6.97;3.63;;;10.90;77.30;;;;;;5032791;28;20075;-81
2024/01/26 12:22:20;;;;;;;3.17;2.10;;;10.90;78.00;;;;;;5032814;28;20025;-82
2024/01/26 12:24:46;;;;;;;1.25;1.10;;;10.90;78.30;;;;;;5032843;28;20109;-81
2024/01/26 12:27:11;;;;;;;1.92;1.08;;;10.90;77.90;;;;;;5031579;28;20371;-81
2024/01/26 12:29:37;;;;;;;1.90;1.33;;;10.90;77.80;;;;;;5014995;28;20071;-80
2024/01/26 12:32:04;;;;;;;2.45;1.17;;;10.90;77.60;;;;;;5032805;28;20033;-82
2024/01/26 12:34:30;;;;;;;1.25;1.02;;;10.90;77.70;;;;;;5032583;28;20037;-82
2024/01/26 12:37:03;;;;;;;0.80;0.80;;;10.80;78.00;;;;;;5032546;28;20406;-78
2024/01/26 12:39:30;;;;;;;2.15;1.35;;;10.60;78.90;;;;;;5032907;28;20033;-81
2024/01/26 12:41:56;;;;;;;2.63;1.33;;;10.50;79.90;;;;;;5014808;28;20026;-81
2024/01/26 12:44:31;;;;;;;1.40;0.80;;;10.40;79.50;;;;;;5032697;28;20032;-82
2024/01/26 12:46:59;;;;;;;2.25;0.77;;;10.50;79.30;;;;;;5032365;28;20142;-80
2024/01/26 12:49:25;;;;;;;3.45;1.10;;;10.40;79.90;;;;;;5014746;28;20038;-80